createdAt,value
2022-10-25T00:01:51.230Z,10.00
2022-10-25T00:04:55.159Z,9.60
2022-10-25T00:07:58.933Z,10.17
2022-10-25T00:11:02.672Z,9.83
2022-10-25T00:14:08.353Z,9.77
2022-10-25T00:17:13.669Z,9.87
2022-10-25T00:20:17.785Z,9.70
2022-10-25T00:23:21.753Z,10.80
2022-10-25T00:26:25.319Z,11.23
2022-10-25T00:29:29.117Z,9.97
2022-10-25T00:32:34.335Z,10.57
2022-10-25T00:35:38.641Z,10.53
2022-10-25T00:38:42.870Z,10.03
2022-10-25T00:41:46.687Z,10.07
2022-10-25T00:44:56.314Z,10.47
2022-10-25T00:48:04.923Z,9.50
2022-10-25T00:51:09.155Z,10.70
2022-10-25T00:54:17.572Z,9.33
2022-10-25T00:57:25.193Z,8.77
2022-10-25T01:00:29.199Z,9.07
2022-10-25T01:03:38.593Z,9.43
2022-10-25T01:06:46.963Z,9.60
2022-10-25T01:09:51.524Z,8.60
2022-10-25T01:12:55.958Z,9.07
2022-10-25T01:16:08.769Z,10.17
2022-10-25T01:19:31.114Z,9.43
2022-10-25T01:22:40.487Z,9.33
2022-10-25T01:26:16.125Z,9.90
2022-10-25T01:29:49.680Z,9.67
2022-10-25T01:33:15.422Z,9.17
2022-10-25T01:36:26.765Z,9.20
2022-10-25T01:39:34.486Z,9.50
2022-10-25T01:42:47.193Z,9.60
2022-10-25T01:45:59.991Z,9.13
2022-10-25T01:49:07.601Z,9.73
2022-10-25T01:52:11.414Z,9.27
2022-10-25T01:55:16.824Z,7.93
2022-10-25T01:58:36.297Z,8.50
2022-10-25T02:01:52.467Z,8.40
2022-10-25T02:05:05.476Z,8.40
2022-10-25T02:08:18.698Z,8.60
2022-10-25T02:11:25.714Z,9.13
2022-10-25T02:14:36.142Z,8.80
2022-10-25T02:17:44.548Z,8.23
2022-10-25T02:20:52.452Z,8.93
2022-10-25T02:23:58.103Z,8.87
2022-10-25T02:27:04.593Z,8.33
2022-10-25T02:30:09.302Z,8.10
2022-10-25T02:33:13.602Z,8.07
2022-10-25T02:36:21.812Z,8.77
2022-10-25T02:39:30.560Z,7.83
2022-10-25T02:42:35.223Z,8.63
2022-10-25T02:45:40.590Z,9.10
2022-10-25T02:48:44.809Z,8.00
2022-10-25T02:54:59.062Z,8.00
2022-10-25T02:58:02.828Z,9.27
2022-10-25T03:01:08.002Z,8.53
2022-10-25T03:04:11.683Z,9.80
2022-10-25T03:07:16.802Z,8.97
2022-10-25T03:10:20.539Z,8.73
2022-10-25T03:13:24.353Z,8.50
2022-10-25T03:16:28.354Z,8.83
2022-10-25T03:19:32.032Z,8.90
2022-10-25T03:22:37.203Z,8.90
2022-10-25T03:25:41.573Z,8.90
2022-10-25T03:28:45.348Z,8.37
2022-10-25T03:31:48.993Z,8.87
2022-10-25T03:34:52.508Z,8.50
2022-10-25T03:37:57.592Z,8.33
2022-10-25T03:41:01.323Z,8.10
2022-10-25T03:44:05.218Z,8.00
2022-10-25T03:47:08.859Z,8.17
2022-10-25T03:50:12.739Z,8.13
2022-10-25T03:53:17.989Z,9.20
2022-10-25T03:56:21.563Z,7.97
2022-10-25T03:59:25.320Z,8.13
2022-10-25T04:02:29.842Z,7.87
2022-10-25T04:05:34.044Z,7.77
2022-10-25T04:08:39.640Z,8.00
2022-10-25T04:11:43.433Z,7.73
2022-10-25T04:14:47.521Z,7.33
2022-10-25T04:17:51.534Z,8.37
2022-10-25T04:20:55.331Z,8.37
2022-10-25T04:24:03.456Z,8.53
2022-10-25T04:27:08.284Z,8.53
2022-10-25T04:30:13.023Z,9.07
2022-10-25T04:33:16.924Z,8.77
2022-10-25T04:36:20.894Z,8.90
2022-10-25T04:39:27.323Z,7.90
2022-10-25T04:42:31.273Z,8.93
2022-10-25T04:45:34.923Z,9.27
2022-10-25T04:48:38.866Z,8.17
2022-10-25T04:51:43.052Z,9.70
2022-10-25T04:54:48.243Z,8.83
2022-10-25T04:57:53.307Z,9.90
2022-10-25T05:01:01.328Z,11.03
2022-10-25T05:04:05.484Z,11.10
2022-10-25T05:07:09.223Z,11.17
2022-10-25T05:10:14.423Z,10.57
2022-10-25T05:13:18.103Z,10.57
2022-10-25T05:16:24.157Z,9.80
2022-10-25T05:19:27.943Z,10.03
2022-10-25T05:22:32.617Z,10.43
2022-10-25T05:25:37.726Z,10.73
2022-10-25T05:28:42.956Z,11.53
2022-10-25T05:31:46.643Z,13.03
2022-10-25T05:34:50.347Z,12.30
2022-10-25T05:37:54.108Z,13.50
2022-10-25T05:41:00.658Z,12.70
2022-10-25T05:44:04.365Z,12.33
2022-10-25T05:47:08.197Z,10.73
2022-10-25T05:50:11.986Z,10.80
2022-10-25T05:53:15.867Z,10.90
2022-10-25T05:56:22.877Z,13.57
2022-10-25T05:59:26.697Z,12.83
2022-10-25T06:02:30.558Z,11.87
2022-10-25T06:05:34.485Z,12.43
2022-10-25T06:08:39.285Z,12.07
2022-10-25T06:11:44.723Z,10.20
2022-10-25T06:14:48.495Z,12.27
2022-10-25T06:17:52.257Z,10.07
2022-10-25T06:20:56.147Z,9.47
2022-10-25T06:24:01.176Z,10.77
2022-10-25T06:27:06.638Z,10.30
2022-10-25T06:30:11.749Z,10.67
2022-10-25T06:33:15.593Z,11.83
2022-10-25T06:36:21.220Z,10.30
2022-10-25T06:39:25.160Z,9.37
2022-10-25T06:42:30.325Z,10.13
2022-10-25T06:45:35.213Z,9.93
2022-10-25T06:48:39.740Z,10.50
2022-10-25T06:51:43.583Z,9.00
2022-10-25T06:54:47.492Z,9.83
2022-10-25T06:57:52.611Z,9.13
2022-10-25T07:00:56.490Z,8.87
2022-10-25T07:04:00.272Z,9.03
2022-10-25T07:07:03.983Z,9.40
2022-10-25T07:10:08.179Z,9.77
2022-10-25T07:13:13.342Z,8.20
2022-10-25T07:16:19.569Z,9.93
2022-10-25T07:19:24.863Z,8.60
2022-10-25T07:22:28.959Z,8.50
2022-10-25T07:25:32.747Z,8.40
2022-10-25T07:28:38.143Z,8.23
2022-10-25T07:31:43.410Z,8.43
2022-10-25T07:34:47.258Z,7.93
2022-10-25T07:37:51.070Z,8.40
2022-10-25T07:40:58.288Z,8.05
2022-10-25T07:44:03.622Z,7.97
2022-10-25T07:47:07.419Z,7.60
2022-10-25T07:50:11.610Z,6.95
2022-10-25T07:53:15.453Z,8.07
2022-10-25T07:56:23.766Z,7.20
2022-10-25T07:59:29.273Z,8.88
2022-10-25T08:02:33.063Z,7.93
2022-10-25T08:05:36.799Z,7.88
2022-10-25T08:08:40.512Z,7.30
2022-10-25T08:11:44.473Z,7.68
2022-10-25T08:14:49.830Z,7.53
2022-10-25T08:18:00.111Z,7.53
2022-10-25T08:21:05.590Z,6.82
2022-10-25T08:24:09.874Z,7.05
2022-10-25T08:27:13.599Z,7.40
2022-10-25T08:30:19.116Z,7.22
2022-10-25T08:33:22.963Z,6.75
2022-10-25T08:36:28.283Z,6.03
2022-10-25T08:39:32.150Z,7.40
2022-10-25T08:42:51.719Z,6.22
2022-10-25T08:46:01.483Z,5.60
2022-10-25T08:49:17.069Z,6.38
2022-10-25T08:52:27.062Z,6.45
2022-10-25T08:55:35.053Z,5.95
2022-10-25T08:58:46.512Z,5.57
2022-10-25T09:01:56.875Z,6.35
2022-10-25T09:05:01.205Z,6.85
2022-10-25T09:08:26.881Z,6.28
2022-10-25T09:11:49.160Z,6.50
2022-10-25T09:15:00.123Z,6.90
2022-10-25T09:18:14.880Z,6.63
2022-10-25T09:21:23.165Z,7.15
2022-10-25T09:24:31.650Z,7.80
2022-10-25T09:27:37.769Z,6.90
2022-10-25T09:30:46.351Z,6.47
2022-10-25T09:34:00.131Z,6.97
2022-10-25T09:37:16.089Z,7.32
2022-10-25T09:40:22.949Z,7.15
2022-10-25T09:43:32.485Z,7.15
2022-10-25T09:46:42.670Z,7.07
2022-10-25T09:49:54.621Z,6.70
2022-10-25T09:53:11.919Z,7.57
2022-10-25T09:56:17.542Z,6.13
2022-10-25T09:59:21.363Z,7.85
2022-10-25T10:02:27.499Z,6.35
2022-10-25T10:05:33.750Z,6.95
2022-10-25T10:08:37.974Z,7.93
2022-10-25T10:11:43.965Z,7.57
2022-10-25T10:14:54.946Z,7.22
2022-10-25T10:18:27.844Z,7.40
2022-10-25T10:21:34.245Z,6.90
2022-10-25T10:24:40.264Z,6.70
2022-10-25T10:27:44.093Z,8.10
2022-10-25T10:30:55.263Z,6.28
2022-10-25T10:33:59.054Z,7.40
2022-10-25T10:37:14.676Z,7.38
2022-10-25T10:40:25.761Z,7.43
2022-10-25T10:43:32.616Z,6.95
2022-10-25T10:46:47.910Z,6.43
2022-10-25T10:49:54.484Z,7.03
2022-10-25T10:53:02.004Z,7.55
2022-10-25T10:56:07.581Z,7.60
2022-10-25T10:59:29.022Z,7.18
2022-10-25T11:02:41.425Z,7.57
2022-10-25T11:05:54.953Z,7.35
2022-10-25T11:09:20.521Z,7.88
2022-10-25T11:12:24.190Z,6.53
2022-10-25T11:15:30.181Z,7.20
2022-10-25T11:18:43.729Z,7.88
2022-10-25T11:22:17.972Z,6.88
2022-10-25T11:25:36.700Z,7.88
2022-10-25T11:28:50.311Z,7.28
2022-10-25T11:32:04.549Z,7.22
2022-10-25T11:35:24.732Z,8.32
2022-10-25T11:38:56.930Z,7.57
2022-10-25T11:42:16.795Z,7.07
2022-10-25T11:45:34.399Z,7.60
2022-10-25T11:48:52.178Z,7.18
2022-10-25T11:52:12.385Z,6.85
2022-10-25T11:55:29.110Z,7.03
2022-10-25T11:58:44.518Z,7.43
2022-10-25T12:02:01.001Z,7.70
2022-10-25T12:05:19.518Z,7.93
2022-10-25T12:08:32.518Z,7.80
2022-10-25T12:11:43.587Z,7.68
2022-10-25T12:14:54.311Z,7.28
2022-10-25T12:17:58.223Z,6.82
2022-10-25T12:21:03.252Z,6.30
2022-10-25T12:24:13.132Z,6.95
2022-10-25T12:27:20.338Z,9.38
2022-10-25T12:33:38.237Z,6.78
2022-10-25T12:36:45.214Z,6.85
2022-10-25T12:39:49.549Z,6.35
2022-10-25T12:42:56.918Z,6.32
2022-10-25T12:46:18.373Z,7.43
2022-10-25T12:49:49.373Z,7.50
2022-10-25T12:53:18.088Z,6.20
2022-10-25T12:56:31.421Z,6.55
2022-10-25T12:59:45.964Z,7.60
2022-10-25T13:03:21.817Z,7.05
2022-10-25T13:06:34.252Z,6.22
2022-10-25T13:09:40.090Z,6.50
2022-10-25T13:12:58.919Z,7.55
2022-10-25T13:16:04.705Z,6.47
2022-10-25T13:19:53.037Z,7.20
2022-10-25T13:22:55.112Z,7.05
2022-10-25T13:26:08.701Z,7.00
2022-10-25T13:29:45.599Z,6.75
2022-10-25T13:34:06.439Z,6.07
2022-10-25T13:37:43.380Z,6.70
2022-10-25T13:41:07.523Z,6.80
2022-10-25T13:44:24.520Z,6.63
2022-10-25T13:47:35.917Z,6.22
2022-10-25T13:50:45.106Z,6.97
2022-10-25T13:53:56.059Z,9.95
2022-10-25T13:57:01.261Z,6.25
2022-10-25T14:00:13.036Z,6.07
2022-10-25T14:03:38.779Z,6.30
2022-10-25T14:06:43.149Z,7.10
2022-10-25T14:09:52.703Z,7.57
2022-10-25T14:13:12.701Z,6.95
2022-10-25T14:16:25.755Z,7.57
2022-10-25T14:19:37.940Z,8.32
2022-10-25T14:22:44.858Z,7.25
2022-10-25T14:25:53.339Z,7.70
2022-10-25T14:29:14.639Z,8.00
2022-10-25T14:32:22.184Z,7.85
2022-10-25T14:35:30.421Z,7.38
2022-10-25T14:38:37.180Z,6.88
2022-10-25T14:41:42.443Z,7.22
2022-10-25T14:44:49.322Z,7.43
2022-10-25T14:47:53.463Z,7.20
2022-10-25T14:50:59.212Z,6.63
2022-10-25T14:54:05.804Z,7.57
2022-10-25T14:57:14.542Z,8.95
2022-10-25T15:00:22.953Z,10.25
2022-10-25T15:03:29.314Z,11.73
2022-10-25T15:06:34.009Z,9.30
2022-10-25T15:09:51.018Z,9.10
2022-10-25T15:12:54.789Z,8.73
2022-10-25T15:16:04.234Z,9.30
2022-10-25T15:19:19.329Z,7.72
2022-10-25T15:22:30.339Z,8.65
2022-10-25T15:25:39.140Z,9.10
2022-10-25T15:28:55.783Z,10.10
2022-10-25T15:32:00.959Z,9.25
2022-10-25T15:35:05.319Z,10.00
2022-10-25T15:38:11.639Z,11.60
2022-10-25T15:41:15.440Z,9.88
2022-10-25T15:44:19.189Z,10.48
2022-10-25T15:47:32.380Z,9.48
2022-10-25T15:50:36.079Z,11.13
2022-10-25T15:53:40.004Z,10.27
2022-10-25T15:56:44.082Z,11.35
2022-10-25T15:59:47.982Z,11.57
2022-10-25T16:02:54.229Z,11.02
2022-10-25T16:05:57.930Z,11.55
2022-10-25T16:09:02.953Z,12.85
2022-10-25T16:12:08.046Z,12.93
2022-10-25T16:15:14.429Z,13.07
2022-10-25T16:18:19.744Z,14.68
2022-10-25T16:21:23.839Z,13.52
2022-10-25T16:24:29.647Z,13.95
2022-10-25T16:27:33.259Z,14.50
2022-10-25T16:30:39.419Z,15.18
2022-10-25T16:33:45.982Z,14.38
2022-10-25T16:36:51.018Z,9.75
2022-10-25T16:39:54.932Z,12.73
2022-10-25T16:42:59.239Z,14.55
2022-10-25T16:46:03.029Z,13.45
2022-10-25T16:49:09.568Z,13.85
2022-10-25T16:52:13.430Z,13.73
2022-10-25T16:55:17.191Z,13.52
2022-10-25T16:58:21.042Z,14.00
2022-10-25T17:01:29.299Z,12.68
2022-10-25T17:04:34.545Z,13.82
2022-10-25T17:10:49.074Z,14.00
2022-10-25T17:13:52.721Z,17.10
2022-10-25T17:17:00.763Z,15.90
2022-10-25T17:20:09.939Z,20.50
2022-10-25T17:23:13.706Z,18.55
2022-10-25T17:26:17.972Z,17.85
2022-10-25T17:29:21.602Z,17.20
2022-10-25T17:32:25.349Z,16.70
2022-10-25T17:35:31.066Z,19.13
2022-10-25T17:38:34.841Z,19.25
2022-10-25T17:41:39.119Z,18.40
2022-10-25T17:46:20.831Z,18.60
2022-10-25T17:55:13.733Z,20.80
2022-10-25T17:58:28.362Z,20.25
2022-10-25T18:01:45.133Z,21.70
2022-10-25T18:05:20.203Z,24.75
2022-10-25T18:08:28.348Z,22.45
2022-10-25T18:11:32.179Z,21.92
2022-10-25T18:14:37.593Z,23.38
2022-10-25T18:17:41.545Z,24.25
2022-10-25T18:20:51.442Z,25.75
2022-10-25T18:24:00.200Z,24.42
2022-10-25T18:27:04.040Z,29.60
2022-10-25T18:30:11.161Z,27.75
2022-10-25T18:33:15.252Z,30.77
2022-10-25T18:36:20.702Z,31.85
2022-10-25T18:39:24.521Z,32.80
2022-10-25T18:42:28.243Z,30.02
2022-10-25T18:45:37.109Z,19.65
2022-10-25T18:48:42.353Z,17.65
2022-10-25T18:51:46.232Z,18.83
2022-10-25T18:54:50.072Z,21.10
2022-10-25T18:57:55.229Z,19.60
2022-10-25T19:01:08.033Z,20.17
2022-10-25T19:04:11.994Z,19.45
2022-10-25T19:07:15.801Z,19.45
2022-10-25T19:10:19.792Z,17.02
2022-10-25T19:13:23.381Z,16.63
2022-10-25T19:16:28.602Z,17.58
2022-10-25T19:19:32.392Z,15.57
2022-10-25T19:22:36.310Z,17.42
2022-10-25T19:25:40.102Z,15.73
2022-10-25T19:28:44.262Z,17.15
2022-10-25T19:31:50.132Z,19.20
2022-10-25T19:34:53.876Z,15.10
2022-10-25T19:37:57.573Z,14.63
2022-10-25T19:41:02.459Z,16.77
2022-10-25T19:44:09.432Z,15.45
2022-10-25T19:47:15.144Z,16.77
2022-10-25T19:50:18.930Z,17.05
2022-10-25T19:53:23.113Z,18.30
2022-10-25T19:56:27.003Z,18.00
2022-10-25T19:59:30.940Z,17.30
2022-10-25T20:02:36.283Z,18.17
2022-10-25T20:05:40.250Z,18.55
2022-10-25T20:08:46.563Z,17.92
2022-10-25T20:11:50.374Z,18.30
2022-10-25T20:14:53.999Z,18.83
2022-10-25T20:17:59.922Z,16.08
2022-10-25T20:21:06.193Z,14.30
2022-10-25T20:24:11.183Z,13.30
2022-10-25T20:27:15.053Z,13.88
2022-10-25T20:30:18.982Z,12.35
2022-10-25T20:33:24.280Z,12.60
2022-10-25T20:36:28.122Z,14.05
2022-10-25T20:39:31.833Z,12.68
2022-10-25T20:42:35.464Z,12.43
2022-10-25T20:45:41.619Z,12.00
2022-10-25T20:48:47.000Z,13.88
2022-10-25T20:51:50.843Z,14.87
2022-10-25T20:54:54.808Z,14.07
2022-10-25T20:57:58.451Z,14.73
2022-10-25T21:01:02.603Z,15.30
2022-10-25T21:04:07.815Z,12.67
2022-10-25T21:07:11.579Z,12.97
2022-10-25T21:10:15.294Z,13.30
2022-10-25T21:13:19.193Z,13.43
2022-10-25T21:16:23.503Z,15.85
2022-10-25T21:19:28.679Z,11.37
2022-10-25T21:22:32.468Z,13.18
2022-10-25T21:25:36.533Z,11.27
2022-10-25T21:28:42.110Z,10.73
2022-10-25T21:31:45.920Z,11.03
2022-10-25T21:34:50.894Z,10.43
2022-10-25T21:37:55.456Z,10.93
2022-10-25T21:41:07.589Z,10.73
2022-10-25T21:44:11.356Z,12.20
2022-10-25T21:47:15.773Z,10.23
2022-10-25T21:50:20.899Z,10.83
2022-10-25T21:53:24.670Z,12.27
2022-10-25T21:56:31.428Z,12.00
2022-10-25T21:59:35.420Z,13.47
2022-10-25T22:02:39.470Z,13.07
2022-10-25T22:05:47.673Z,12.90
2022-10-25T22:08:52.142Z,14.07
2022-10-25T22:11:55.812Z,14.17
2022-10-25T22:14:59.563Z,16.93
2022-10-25T22:18:03.262Z,17.23
2022-10-25T22:21:10.673Z,16.70
2022-10-25T22:24:14.858Z,15.23
2022-10-25T22:27:18.475Z,15.37
2022-10-25T22:30:22.222Z,15.67
2022-10-25T22:33:26.004Z,15.37
2022-10-25T22:36:32.641Z,14.50
2022-10-25T22:39:36.464Z,14.40
2022-10-25T22:42:40.137Z,12.70
2022-10-25T22:45:43.866Z,12.83
2022-10-25T22:48:47.894Z,11.87
2022-10-25T22:51:53.042Z,11.87
2022-10-25T22:54:56.678Z,12.27
2022-10-25T22:58:00.357Z,11.47
2022-10-25T23:01:06.017Z,12.83
2022-10-25T23:04:11.187Z,12.10
2022-10-25T23:07:16.482Z,11.70
2022-10-25T23:10:20.160Z,9.80
2022-10-25T23:13:23.903Z,10.03
2022-10-25T23:16:28.825Z,10.33
2022-10-25T23:19:32.556Z,10.97
2022-10-25T23:22:37.901Z,10.00
2022-10-25T23:25:41.537Z,8.80
2022-10-25T23:28:45.064Z,9.07
2022-10-25T23:31:48.537Z,8.37
2022-10-25T23:34:53.759Z,8.40
2022-10-25T23:38:01.787Z,7.37
2022-10-25T23:41:05.969Z,9.10
2022-10-25T23:44:09.524Z,6.90
2022-10-25T23:47:13.265Z,7.30
2022-10-25T23:50:17.349Z,7.47
2022-10-25T23:53:22.516Z,7.30
2022-10-25T23:56:25.983Z,7.53
2022-10-25T23:59:29.706Z,6.43
